createdAt,value
2018-10-21T00:00:18.501Z,18.02
2018-10-21T00:02:47.888Z,18.12
2018-10-21T00:05:17.696Z,18.25
2018-10-21T00:07:46.984Z,18.67
2018-10-21T00:10:16.581Z,18.40
2018-10-21T00:12:45.898Z,17.67
2018-10-21T00:15:15.446Z,15.45
2018-10-21T00:17:44.890Z,16.45
2018-10-21T00:20:14.288Z,16.30
2018-10-21T00:22:43.444Z,16.87
2018-10-21T00:25:12.981Z,15.93
2018-10-21T00:27:42.316Z,16.02
2018-10-21T00:30:12.014Z,15.13
2018-10-21T00:35:34.443Z,15.35
2018-10-21T00:38:03.983Z,16.15
2018-10-21T00:40:33.279Z,15.03
2018-10-21T00:43:02.582Z,15.43
2018-10-21T00:45:31.802Z,14.10
2018-10-21T00:48:00.956Z,15.13
2018-10-21T00:50:30.177Z,15.58
2018-10-21T00:52:59.759Z,15.75
2018-10-21T00:55:29.279Z,14.53
2018-10-21T00:57:58.497Z,15.58
2018-10-21T01:00:27.843Z,15.30
2018-10-21T01:02:57.119Z,13.88
2018-10-21T01:05:26.333Z,16.32
2018-10-21T01:10:47.045Z,14.05
2018-10-21T01:13:16.379Z,14.98
2018-10-21T01:15:45.478Z,13.65
2018-10-21T01:18:14.876Z,14.75
2018-10-21T01:20:44.399Z,15.50
2018-10-21T01:23:14.047Z,16.17
2018-10-21T01:25:44.102Z,14.00
2018-10-21T01:28:13.728Z,14.40
2018-10-21T01:30:42.908Z,15.78
2018-10-21T01:36:05.320Z,15.40
2018-10-21T01:38:34.788Z,15.25
2018-10-21T01:41:04.555Z,14.45
2018-10-21T01:43:34.548Z,15.10
2018-10-21T01:46:04.243Z,14.25
2018-10-21T01:48:33.950Z,15.20
2018-10-21T01:51:03.301Z,15.75
2018-10-21T01:53:32.832Z,14.73
2018-10-21T01:56:02.264Z,14.80
2018-10-21T01:58:31.666Z,14.68
2018-10-21T02:01:01.217Z,14.50
2018-10-21T02:03:30.840Z,15.00
2018-10-21T02:06:00.151Z,16.07
2018-10-21T02:08:30.164Z,14.85
2018-10-21T02:10:59.502Z,16.93
2018-10-21T02:13:28.558Z,15.60
2018-10-21T02:15:57.998Z,15.08
2018-10-21T02:18:27.630Z,16.07
2018-10-21T02:20:57.299Z,15.50
2018-10-21T02:23:26.985Z,15.25
2018-10-21T02:25:56.434Z,15.55
2018-10-21T02:28:26.152Z,15.03
2018-10-21T02:30:54.937Z,15.05
2018-10-21T02:33:24.121Z,16.50
2018-10-21T02:35:53.381Z,16.52
2018-10-21T02:38:22.555Z,14.90
2018-10-21T02:41:44.460Z,15.30
2018-10-21T02:44:15.344Z,15.15
2018-10-21T02:46:45.356Z,14.30
2018-10-21T02:49:15.396Z,15.18
2018-10-21T02:51:49.184Z,14.10
2018-10-21T02:54:22.679Z,14.80
2018-10-21T02:56:52.335Z,14.83
2018-10-21T02:59:22.360Z,15.48
2018-10-21T03:01:51.877Z,15.68
2018-10-21T03:04:21.719Z,15.63
2018-10-21T03:06:51.509Z,15.32
2018-10-21T03:09:20.877Z,14.47
2018-10-21T03:11:50.578Z,15.05
2018-10-21T03:14:20.492Z,15.58
2018-10-21T03:16:49.892Z,14.63
2018-10-21T03:19:18.697Z,14.90
2018-10-21T03:21:47.610Z,14.58
2018-10-21T03:24:17.010Z,16.17
2018-10-21T03:26:47.092Z,14.63
2018-10-21T03:29:17.040Z,14.20
2018-10-21T03:31:46.407Z,13.90
2018-10-21T03:34:15.687Z,15.03
2018-10-21T03:36:44.973Z,13.22
2018-10-21T03:39:14.254Z,15.35
2018-10-21T03:41:43.644Z,15.88
2018-10-21T03:44:12.932Z,15.13
2018-10-21T03:46:42.334Z,14.43
2018-10-21T03:49:11.733Z,15.23
2018-10-21T03:51:41.251Z,15.55
2018-10-21T03:54:10.503Z,14.15
2018-10-21T03:56:39.943Z,14.73
2018-10-21T03:59:09.460Z,15.43
2018-10-21T04:01:39.083Z,14.68
2018-10-21T04:04:08.752Z,12.95
2018-10-21T04:06:38.405Z,16.12
2018-10-21T04:09:08.384Z,14.55
2018-10-21T04:11:38.029Z,13.55
2018-10-21T04:14:07.638Z,14.75
2018-10-21T04:16:37.441Z,15.23
2018-10-21T04:19:07.048Z,14.23
2018-10-21T04:21:36.565Z,15.78
2018-10-21T04:24:06.158Z,13.95
2018-10-21T04:26:43.366Z,14.78
2018-10-21T04:29:19.160Z,15.58
2018-10-21T04:34:41.854Z,14.60
2018-10-21T04:37:22.152Z,14.47
2018-10-21T04:40:07.067Z,13.80
2018-10-21T04:42:36.581Z,12.98
2018-10-21T04:45:06.438Z,13.62
2018-10-21T04:47:35.954Z,11.90
2018-10-21T04:50:05.649Z,12.55
2018-10-21T04:52:34.988Z,13.60
2018-10-21T04:55:07.764Z,14.70
2018-10-21T04:57:38.601Z,13.38
2018-10-21T05:00:10.757Z,13.53
2018-10-21T05:02:40.093Z,15.08
2018-10-21T05:05:10.631Z,12.88
2018-10-21T05:07:40.632Z,14.55
2018-10-21T05:10:17.802Z,14.93
2018-10-21T05:12:47.361Z,13.95
2018-10-21T05:15:17.156Z,13.90
2018-10-21T05:17:46.473Z,13.18
2018-10-21T05:20:15.973Z,13.62
2018-10-21T05:22:45.367Z,13.30
2018-10-21T05:25:14.824Z,13.62
2018-10-21T05:27:44.382Z,13.30
2018-10-21T05:30:14.117Z,12.65
2018-10-21T05:32:43.772Z,13.72
2018-10-21T05:35:14.709Z,13.95
2018-10-21T05:37:43.790Z,14.33
2018-10-21T05:40:14.408Z,14.55
2018-10-21T05:42:44.400Z,12.05
2018-10-21T05:45:14.467Z,13.95
2018-10-21T05:47:44.461Z,14.10
2018-10-21T05:50:15.501Z,13.50
2018-10-21T05:52:45.824Z,13.85
2018-10-21T05:55:16.458Z,13.80
2018-10-21T05:57:45.596Z,12.82
2018-10-21T06:00:19.154Z,13.75
2018-10-21T06:02:48.223Z,13.55
2018-10-21T06:05:35.095Z,13.50
2018-10-21T06:08:04.530Z,14.68
2018-10-21T06:10:34.134Z,14.20
2018-10-21T06:13:03.415Z,13.68
2018-10-21T06:15:32.571Z,14.23
2018-10-21T06:18:02.694Z,13.25
2018-10-21T06:20:40.391Z,13.22
2018-10-21T06:23:10.020Z,13.60
2018-10-21T06:25:39.693Z,13.78
2018-10-21T06:28:09.427Z,13.05
2018-10-21T06:30:39.061Z,15.72
2018-10-21T06:33:08.842Z,15.88
2018-10-21T06:35:38.455Z,13.40
2018-10-21T06:38:08.221Z,15.55
2018-10-21T06:40:37.848Z,14.75
2018-10-21T06:43:07.505Z,14.30
2018-10-21T06:45:37.405Z,15.23
2018-10-21T06:48:07.176Z,14.45
2018-10-21T06:50:36.788Z,13.98
2018-10-21T06:53:06.600Z,15.63
2018-10-21T06:55:36.293Z,15.68
2018-10-21T06:58:06.056Z,14.33
2018-10-21T07:00:35.357Z,14.33
2018-10-21T07:03:04.967Z,15.00
2018-10-21T07:06:17.085Z,14.93
2018-10-21T07:08:47.081Z,14.40
2018-10-21T07:11:16.961Z,13.80
2018-10-21T07:13:46.370Z,15.18
2018-10-21T07:16:16.201Z,16.10
2018-10-21T07:18:46.365Z,15.72
2018-10-21T07:21:15.999Z,15.85
2018-10-21T07:23:45.409Z,15.85
2018-10-21T07:26:15.113Z,16.65
2018-10-21T07:28:44.329Z,16.65
2018-10-21T07:31:17.219Z,14.98
2018-10-21T07:33:47.101Z,15.32
2018-10-21T07:36:23.077Z,17.50
2018-10-21T07:38:52.239Z,16.80
2018-10-21T07:41:21.396Z,16.27
2018-10-21T07:43:50.930Z,16.30
2018-10-21T07:46:20.317Z,17.10
2018-10-21T07:48:50.099Z,17.00
2018-10-21T07:51:19.595Z,16.77
2018-10-21T07:53:48.944Z,18.12
2018-10-21T07:56:18.278Z,16.97
2018-10-21T07:58:47.555Z,16.40
2018-10-21T08:01:16.781Z,17.15
2018-10-21T08:03:46.112Z,18.10
2018-10-21T08:06:32.744Z,19.52
2018-10-21T08:09:08.674Z,17.62
2018-10-21T08:11:38.077Z,19.65
2018-10-21T08:14:07.119Z,20.37
2018-10-21T08:16:36.087Z,20.97
2018-10-21T08:19:05.309Z,22.23
2018-10-21T08:21:34.681Z,22.63
2018-10-21T08:24:07.229Z,24.50
2018-10-21T08:26:36.390Z,23.47
2018-10-21T08:29:05.551Z,24.80
2018-10-21T08:31:35.786Z,24.83
2018-10-21T08:34:05.500Z,25.00
2018-10-21T08:36:34.706Z,26.70
2018-10-21T08:39:08.062Z,25.80
2018-10-21T08:41:37.586Z,24.80
2018-10-21T08:44:06.748Z,26.83
2018-10-21T08:46:35.922Z,25.73
2018-10-21T08:49:05.210Z,24.20
2018-10-21T08:51:34.474Z,26.30
2018-10-21T08:54:03.653Z,25.30
2018-10-21T08:56:33.259Z,26.20
2018-10-21T08:59:02.661Z,26.27
2018-10-21T09:01:31.937Z,24.30
2018-10-21T09:04:01.001Z,26.63
2018-10-21T09:06:30.019Z,26.17
2018-10-21T09:08:59.177Z,25.23
2018-10-21T09:11:34.513Z,25.67
2018-10-21T09:14:03.859Z,24.77
2018-10-21T09:16:33.199Z,24.93
2018-10-21T09:19:02.590Z,23.10
2018-10-21T09:21:31.575Z,22.40
2018-10-21T09:24:00.734Z,23.17
2018-10-21T09:26:29.784Z,24.50
2018-10-21T09:28:59.055Z,22.53
2018-10-21T09:31:28.331Z,20.20
2018-10-21T09:33:57.247Z,22.20
2018-10-21T09:36:26.412Z,22.20
2018-10-21T09:38:55.453Z,20.17
2018-10-21T09:41:24.612Z,20.43
2018-10-21T09:43:53.771Z,19.97
2018-10-21T09:46:23.171Z,18.53
2018-10-21T09:48:52.331Z,16.73
2018-10-21T09:51:21.410Z,18.53
2018-10-21T09:53:50.292Z,17.43
2018-10-21T09:56:19.330Z,18.30
2018-10-21T09:58:48.721Z,17.20
2018-10-21T10:01:38.885Z,17.13
2018-10-21T10:04:08.463Z,16.50
2018-10-21T10:06:37.992Z,16.07
2018-10-21T10:09:09.604Z,16.07
2018-10-21T10:11:38.763Z,16.70
2018-10-21T10:14:07.804Z,14.27
2018-10-21T10:16:37.084Z,14.30
2018-10-21T10:19:06.683Z,14.70
2018-10-21T10:21:36.346Z,15.27
2018-10-21T10:24:05.529Z,16.27
2018-10-21T10:26:34.560Z,15.03
2018-10-21T10:29:10.901Z,15.73
2018-10-21T10:31:40.683Z,13.90
2018-10-21T10:34:09.754Z,11.90
2018-10-21T10:36:39.767Z,14.47
2018-10-21T10:39:10.437Z,13.30
2018-10-21T10:41:40.599Z,11.90
2018-10-21T10:44:10.017Z,12.17
2018-10-21T10:46:39.242Z,13.07
2018-10-21T10:49:13.763Z,12.13
2018-10-21T10:51:43.786Z,12.90
2018-10-21T10:54:18.235Z,11.00
2018-10-21T10:56:47.516Z,12.57
2018-10-21T10:59:16.554Z,11.90
2018-10-21T11:01:45.597Z,11.40
2018-10-21T11:04:14.728Z,11.97
2018-10-21T11:06:43.674Z,11.50
2018-10-21T11:09:13.128Z,12.00
2018-10-21T11:11:42.353Z,10.60
2018-10-21T11:14:11.392Z,10.47
2018-10-21T11:16:40.550Z,10.40
2018-10-21T11:19:09.886Z,9.57
2018-10-21T11:21:55.127Z,9.33
2018-10-21T11:24:31.006Z,10.10
2018-10-21T11:27:00.113Z,9.77
2018-10-21T11:29:36.772Z,9.20
2018-10-21T11:32:05.753Z,8.57
2018-10-21T11:34:40.123Z,9.97
2018-10-21T11:37:09.604Z,9.50
2018-10-21T11:39:38.866Z,10.20
2018-10-21T11:42:08.266Z,9.13
2018-10-21T11:44:37.582Z,9.40
2018-10-21T11:47:09.824Z,10.53
2018-10-21T11:49:38.743Z,9.57
2018-10-21T11:52:07.969Z,10.40
2018-10-21T11:54:37.181Z,9.60
2018-10-21T11:57:06.829Z,8.40
2018-10-21T11:59:36.110Z,8.67
2018-10-21T12:02:05.380Z,8.47
2018-10-21T12:04:34.540Z,7.40
2018-10-21T12:07:03.738Z,6.80
2018-10-21T12:09:46.341Z,6.67
2018-10-21T12:12:15.458Z,6.33
2018-10-21T12:14:50.165Z,6.73
2018-10-21T12:17:19.175Z,7.00
2018-10-21T12:19:48.494Z,6.53
2018-10-21T12:22:18.192Z,6.23
2018-10-21T12:24:47.255Z,6.73
2018-10-21T12:27:16.431Z,7.13
2018-10-21T12:29:45.574Z,6.70
2018-10-21T12:32:14.639Z,6.77
2018-10-21T12:34:43.781Z,7.60
2018-10-21T12:37:12.997Z,7.30
2018-10-21T12:39:42.216Z,7.63
2018-10-21T12:42:11.299Z,6.20
2018-10-21T12:44:40.294Z,8.80
2018-10-21T12:47:09.639Z,7.40
2018-10-21T12:49:38.733Z,8.40
2018-10-21T12:52:07.924Z,8.10
2018-10-21T12:54:37.138Z,9.97
2018-10-21T12:57:06.572Z,9.97
2018-10-21T12:59:35.607Z,7.90
2018-10-21T13:02:04.942Z,8.97
2018-10-21T13:04:34.196Z,7.17
2018-10-21T13:07:03.146Z,7.80
2018-10-21T13:09:32.008Z,7.07
2018-10-21T13:12:01.048Z,6.30
2018-10-21T13:14:30.367Z,7.43
2018-10-21T13:16:59.561Z,8.47
2018-10-21T13:19:28.884Z,6.93
2018-10-21T13:21:57.975Z,8.00
2018-10-21T13:24:27.322Z,7.33
2018-10-21T13:26:56.721Z,6.70
2018-10-21T13:29:26.364Z,7.77
2018-10-21T13:31:55.965Z,7.57
2018-10-21T13:34:25.447Z,7.40
2018-10-21T13:36:54.983Z,6.60
2018-10-21T13:39:23.962Z,5.53
2018-10-21T13:41:53.622Z,5.03
2018-10-21T13:44:23.003Z,4.63
2018-10-21T13:46:52.041Z,5.77
2018-10-21T13:49:21.439Z,5.03
2018-10-21T13:51:50.890Z,5.50
2018-10-21T13:54:19.757Z,4.50
2018-10-21T13:56:48.916Z,5.17
2018-10-21T13:59:18.157Z,5.03
2018-10-21T14:01:47.619Z,4.63
2018-10-21T14:04:17.308Z,4.00
2018-10-21T14:06:46.444Z,4.30
2018-10-21T14:09:16.184Z,4.97
2018-10-21T14:11:45.437Z,4.67
2018-10-21T14:14:14.887Z,3.70
2018-10-21T14:16:44.506Z,4.97
2018-10-21T14:19:14.163Z,4.60
2018-10-21T14:21:43.697Z,4.70
2018-10-21T14:24:13.266Z,5.03
2018-10-21T14:26:42.388Z,4.10
2018-10-21T14:29:11.703Z,5.07
2018-10-21T14:31:40.921Z,4.03
2018-10-21T14:34:10.818Z,3.90
2018-10-21T14:36:40.609Z,4.67
2018-10-21T14:39:12.174Z,4.30
2018-10-21T14:41:47.909Z,4.00
2018-10-21T14:44:17.343Z,4.10
2018-10-21T14:46:46.744Z,3.87
2018-10-21T14:49:16.395Z,3.77
2018-10-21T14:51:46.143Z,3.17
2018-10-21T14:54:15.531Z,3.07
2018-10-21T14:56:45.325Z,3.80
2018-10-21T14:59:15.273Z,2.97
2018-10-21T15:01:45.189Z,2.23
2018-10-21T15:04:14.650Z,3.87
2018-10-21T15:06:44.228Z,2.47
2018-10-21T15:09:14.195Z,2.77
2018-10-21T15:11:44.216Z,2.80
2018-10-21T15:14:14.107Z,2.90
2018-10-21T15:16:43.401Z,2.60
2018-10-21T15:19:13.050Z,3.30
2018-10-21T15:21:42.854Z,2.67
2018-10-21T15:24:12.295Z,3.10
2018-10-21T15:26:41.998Z,2.80
2018-10-21T15:29:11.248Z,3.10
2018-10-21T15:31:40.393Z,3.57
2018-10-21T15:34:09.825Z,3.10
2018-10-21T15:36:39.588Z,3.87
2018-10-21T15:39:10.735Z,2.30
2018-10-21T15:41:40.433Z,3.40
2018-10-21T15:44:10.024Z,2.83
2018-10-21T15:46:39.779Z,3.20
2018-10-21T15:49:09.239Z,3.33
2018-10-21T15:51:39.096Z,3.83
2018-10-21T15:54:08.741Z,2.80
2018-10-21T15:56:46.019Z,3.23
2018-10-21T15:59:15.529Z,4.27
2018-10-21T16:01:44.336Z,3.30
2018-10-21T16:04:14.058Z,3.20
2018-10-21T16:06:50.395Z,3.07
2018-10-21T16:09:20.021Z,2.83
2018-10-21T16:11:49.629Z,3.53
2018-10-21T16:14:19.026Z,2.97
2018-10-21T16:16:48.288Z,2.60
2018-10-21T16:19:17.446Z,3.40
2018-10-21T16:21:46.963Z,6.80
2018-10-21T16:24:16.324Z,3.07
2018-10-21T16:26:45.522Z,3.10
2018-10-21T16:29:14.804Z,3.47
2018-10-21T16:31:44.255Z,3.03
2018-10-21T16:34:13.368Z,3.07
2018-10-21T16:36:42.790Z,3.83
2018-10-21T16:39:12.686Z,3.43
2018-10-21T16:41:42.104Z,3.93
2018-10-21T16:44:11.496Z,3.60
2018-10-21T16:46:43.776Z,3.03
2018-10-21T16:49:13.369Z,3.40
2018-10-21T16:51:43.126Z,3.10
2018-10-21T16:54:12.786Z,3.60
2018-10-21T16:56:42.162Z,4.20
2018-10-21T16:59:11.472Z,3.60
2018-10-21T17:01:40.837Z,3.77
2018-10-21T17:04:10.241Z,3.60
2018-10-21T17:06:39.273Z,3.70
2018-10-21T17:09:11.975Z,3.20
2018-10-21T17:11:41.192Z,4.10
2018-10-21T17:14:10.490Z,4.87
2018-10-21T17:16:39.875Z,4.10
2018-10-21T17:19:09.445Z,5.37
2018-10-21T17:21:38.548Z,4.80
2018-10-21T17:24:08.239Z,6.67
2018-10-21T17:26:37.288Z,5.27
2018-10-21T17:29:06.771Z,7.20
2018-10-21T17:31:36.037Z,6.00
2018-10-21T17:34:05.964Z,6.67
2018-10-21T17:36:36.009Z,7.03
2018-10-21T17:39:08.221Z,8.30
2018-10-21T17:41:38.066Z,7.60
2018-10-21T17:44:07.244Z,9.57
2018-10-21T17:46:37.286Z,11.73
2018-10-21T17:49:06.913Z,10.37
2018-10-21T17:51:36.635Z,11.80
2018-10-21T17:54:06.114Z,12.00
2018-10-21T17:56:40.233Z,13.40
2018-10-21T17:59:09.504Z,13.87
2018-10-21T18:01:38.922Z,12.50
2018-10-21T18:04:08.068Z,13.83
2018-10-21T18:06:40.642Z,17.03
2018-10-21T18:09:11.899Z,19.90
2018-10-21T18:11:41.361Z,21.77
2018-10-21T18:14:10.588Z,20.80
2018-10-21T18:16:40.354Z,19.00
2018-10-21T18:19:09.636Z,16.63
2018-10-21T18:21:39.366Z,16.73
2018-10-21T18:24:08.563Z,16.50
2018-10-21T18:26:38.302Z,16.47
2018-10-21T18:29:07.695Z,16.17
2018-10-21T18:31:36.863Z,16.20
2018-10-21T18:34:06.298Z,18.03
2018-10-21T18:36:35.786Z,16.53
2018-10-21T18:39:06.977Z,16.20
2018-10-21T18:41:36.760Z,14.77
2018-10-21T18:44:06.498Z,13.87
2018-10-21T18:46:36.260Z,15.10
2018-10-21T18:49:05.423Z,15.30
2018-10-21T18:51:34.573Z,15.20
2018-10-21T18:54:04.093Z,15.00
2018-10-21T18:56:33.548Z,16.60
2018-10-21T18:59:02.935Z,15.35
2018-10-21T19:01:32.301Z,13.77
2018-10-21T19:04:01.718Z,13.20
2018-10-21T19:06:31.109Z,13.87
2018-10-21T19:09:00.489Z,12.47
2018-10-21T19:11:30.254Z,13.30
2018-10-21T19:13:59.538Z,12.70
2018-10-21T19:16:28.815Z,13.30
2018-10-21T19:18:58.382Z,13.28
2018-10-21T19:21:27.484Z,12.50
2018-10-21T19:23:57.017Z,10.28
2018-10-21T19:26:26.649Z,11.03
2018-10-21T19:28:56.166Z,8.50
2018-10-21T19:31:25.572Z,8.40
2018-10-21T19:33:55.105Z,8.45
2018-10-21T19:36:24.641Z,8.85
2018-10-21T19:38:54.251Z,8.33
2018-10-21T19:41:24.001Z,8.48
2018-10-21T19:43:53.400Z,7.95
2018-10-21T19:46:23.293Z,8.15
2018-10-21T19:48:59.314Z,8.08
2018-10-21T19:51:28.442Z,7.47
2018-10-21T19:53:58.688Z,8.18
2018-10-21T19:56:30.710Z,9.00
2018-10-21T19:59:00.477Z,7.70
2018-10-21T20:01:35.034Z,8.85
2018-10-21T20:04:05.049Z,9.20
2018-10-21T20:06:34.973Z,10.05
2018-10-21T20:09:05.533Z,10.15
2018-10-21T20:11:35.025Z,12.30
2018-10-21T20:14:04.919Z,10.63
2018-10-21T20:16:34.804Z,9.05
2018-10-21T20:19:04.013Z,8.93
2018-10-21T20:21:33.238Z,8.00
2018-10-21T20:24:03.352Z,7.78
2018-10-21T20:26:32.812Z,9.70
2018-10-21T20:29:02.809Z,11.70
2018-10-21T20:31:32.782Z,10.20
2018-10-21T20:34:02.634Z,13.28
2018-10-21T20:36:32.687Z,11.03
2018-10-21T20:39:05.962Z,11.43
2018-10-21T20:41:35.670Z,10.58
2018-10-21T20:44:05.995Z,9.83
2018-10-21T20:46:35.297Z,9.88
2018-10-21T20:49:05.150Z,15.38
2018-10-21T20:51:34.954Z,14.45
2018-10-21T20:54:05.103Z,13.90
2018-10-21T20:56:34.938Z,11.30
2018-10-21T20:59:05.385Z,10.55
2018-10-21T21:01:35.635Z,8.48
2018-10-21T21:04:05.274Z,9.48
2018-10-21T21:06:34.926Z,9.38
2018-10-21T21:09:05.562Z,9.60
2018-10-21T21:11:35.442Z,9.80
2018-10-21T21:14:05.802Z,9.75
2018-10-21T21:16:35.882Z,9.13
2018-10-21T21:19:06.016Z,8.70
2018-10-21T21:21:36.062Z,8.30
2018-10-21T21:24:06.241Z,8.18
2018-10-21T21:26:36.324Z,8.50
2018-10-21T21:29:06.219Z,8.18
2018-10-21T21:31:35.756Z,9.28
2018-10-21T21:34:06.693Z,8.55
2018-10-21T21:36:36.577Z,8.05
2018-10-21T21:39:10.587Z,7.95
2018-10-21T21:41:41.014Z,8.05
2018-10-21T21:44:10.922Z,7.42
2018-10-21T21:46:41.610Z,8.05
2018-10-21T21:49:11.852Z,8.08
2018-10-21T21:51:41.896Z,9.53
2018-10-21T21:54:13.688Z,9.23
2018-10-21T21:56:45.085Z,9.05
2018-10-21T21:59:14.994Z,7.83
2018-10-21T22:01:44.609Z,8.88
2018-10-21T22:04:14.415Z,8.68
2018-10-21T22:06:44.264Z,9.20
2018-10-21T22:09:14.487Z,8.93
2018-10-21T22:11:44.072Z,8.80
2018-10-21T22:14:13.812Z,8.80
2018-10-21T22:16:43.726Z,8.73
2018-10-21T22:19:13.413Z,8.08
2018-10-21T22:21:43.422Z,8.53
2018-10-21T22:24:13.251Z,8.85
2018-10-21T22:26:42.567Z,7.60
2018-10-21T22:29:12.288Z,9.38
2018-10-21T22:31:41.654Z,8.58
2018-10-21T22:34:11.218Z,8.33
2018-10-21T22:36:40.660Z,8.25
2018-10-21T22:39:10.062Z,8.13
2018-10-21T22:41:39.464Z,8.83
2018-10-21T22:44:09.093Z,8.28
2018-10-21T22:46:38.482Z,8.40
2018-10-21T22:49:07.773Z,9.15
2018-10-21T22:51:36.938Z,7.95
2018-10-21T22:54:06.518Z,8.20
2018-10-21T22:56:35.914Z,8.10
2018-10-21T22:59:05.257Z,8.35
2018-10-21T23:01:34.939Z,8.58
2018-10-21T23:04:04.864Z,7.92
2018-10-21T23:06:34.174Z,8.13
2018-10-21T23:09:03.697Z,9.00
2018-10-21T23:11:33.126Z,8.30
2018-10-21T23:14:02.609Z,8.73
2018-10-21T23:16:32.063Z,8.28
2018-10-21T23:19:12.622Z,8.40
2018-10-21T23:21:42.260Z,8.90
2018-10-21T23:24:12.230Z,9.08
2018-10-21T23:26:42.353Z,8.90
2018-10-21T23:29:12.488Z,9.48
2018-10-21T23:31:42.228Z,10.43
2018-10-21T23:34:12.039Z,8.60
2018-10-21T23:36:41.620Z,8.75
2018-10-21T23:39:11.535Z,7.87
2018-10-21T23:41:41.173Z,7.70
2018-10-21T23:44:10.782Z,8.15
2018-10-21T23:46:40.395Z,8.53
2018-10-21T23:49:10.150Z,8.00
2018-10-21T23:51:39.872Z,8.83
2018-10-21T23:54:09.740Z,9.43
2018-10-21T23:56:40.298Z,9.48
2018-10-21T23:59:11.186Z,10.53
